sensor_id;sensor_type;location;lat;lon;timestamp;pressure;altitude;pressure_sealevel;temperature
61703;BMP280;47622;47.726;3.298;2022-12-18T00:01:15;99713.63;;;-6.63
61703;BMP280;47622;47.726;3.298;2022-12-18T00:03:41;99708.88;;;-6.74
61703;BMP280;47622;47.726;3.298;2022-12-18T00:06:06;99721.63;;;-6.82
61703;BMP280;47622;47.726;3.298;2022-12-18T00:08:32;99724.34;;;-6.84
61703;BMP280;47622;47.726;3.298;2022-12-18T00:11:07;99724.19;;;-6.99
61703;BMP280;47622;47.726;3.298;2022-12-18T00:13:33;99727.72;;;-7.08
61703;BMP280;47622;47.726;3.298;2022-12-18T00:16:07;99729.00;;;-7.12
61703;BMP280;47622;47.726;3.298;2022-12-18T00:18:33;99723.91;;;-7.12
61703;BMP280;47622;47.726;3.298;2022-12-18T00:21:00;99723.56;;;-7.01
61703;BMP280;47622;47.726;3.298;2022-12-18T00:23:26;99713.06;;;-7.14
61703;BMP280;47622;47.726;3.298;2022-12-18T00:25:52;99712.91;;;-7.21
61703;BMP280;47622;47.726;3.298;2022-12-18T00:28:17;99703.19;;;-7.34
61703;BMP280;47622;47.726;3.298;2022-12-18T00:30:43;99705.41;;;-7.30
61703;BMP280;47622;47.726;3.298;2022-12-18T00:33:09;99692.66;;;-7.30
61703;BMP280;47622;47.726;3.298;2022-12-18T00:35:34;99703.34;;;-7.27
61703;BMP280;47622;47.726;3.298;2022-12-18T00:38:00;99702.38;;;-7.26
61703;BMP280;47622;47.726;3.298;2022-12-18T00:40:25;99704.78;;;-7.33
61703;BMP280;47622;47.726;3.298;2022-12-18T00:42:51;99704.78;;;-7.41
61703;BMP280;47622;47.726;3.298;2022-12-18T00:45:27;99692.84;;;-7.40
61703;BMP280;47622;47.726;3.298;2022-12-18T00:47:53;99696.50;;;-7.43
61703;BMP280;47622;47.726;3.298;2022-12-18T00:50:18;99699.38;;;-7.46
61703;BMP280;47622;47.726;3.298;2022-12-18T00:52:44;99697.47;;;-7.44
61703;BMP280;47622;47.726;3.298;2022-12-18T00:55:10;99704.78;;;-7.41
61703;BMP280;47622;47.726;3.298;2022-12-18T00:57:36;99700.31;;;-7.39
61703;BMP280;47622;47.726;3.298;2022-12-18T01:00:04;99711.47;;;-7.40
61703;BMP280;47622;47.726;3.298;2022-12-18T01:02:30;99709.69;;;-7.39
61703;BMP280;47622;47.726;3.298;2022-12-18T01:04:55;99711.94;;;-7.44
61703;BMP280;47622;47.726;3.298;2022-12-18T01:07:21;99721.94;;;-7.43
61703;BMP280;47622;47.726;3.298;2022-12-18T01:09:46;99711.75;;;-7.51
61703;BMP280;47622;47.726;3.298;2022-12-18T01:12:12;99719.75;;;-7.46
61703;BMP280;47622;47.726;3.298;2022-12-18T01:14:37;99718.78;;;-7.45
61703;BMP280;47622;47.726;3.298;2022-12-18T01:17:03;99719.56;;;-7.44
61703;BMP280;47622;47.726;3.298;2022-12-18T01:19:29;99723.38;;;-7.57
61703;BMP280;47622;47.726;3.298;2022-12-18T01:21:55;99724.19;;;-7.48
61703;BMP280;47622;47.726;3.298;2022-12-18T01:24:21;99723.38;;;-7.57
61703;BMP280;47622;47.726;3.298;2022-12-18T01:26:47;99721.28;;;-7.61
61703;BMP280;47622;47.726;3.298;2022-12-18T01:29:12;99729.22;;;-7.64
61703;BMP280;47622;47.726;3.298;2022-12-18T01:31:38;99726.38;;;-7.61
61703;BMP280;47622;47.726;3.298;2022-12-18T01:34:04;99716.84;;;-7.67
61703;BMP280;47622;47.726;3.298;2022-12-18T01:36:32;99717.28;;;-7.64
61703;BMP280;47622;47.726;3.298;2022-12-18T01:39:06;99718.09;;;-7.63
61703;BMP280;47622;47.726;3.298;2022-12-18T01:41:32;99711.09;;;-7.61
61703;BMP280;47622;47.726;3.298;2022-12-18T01:49:59;99719.09;;;-7.56
61703;BMP280;47622;47.726;3.298;2022-12-18T01:52:28;99728.63;;;-7.50
61703;BMP280;47622;47.726;3.298;2022-12-18T01:54:54;99721.28;;;-7.61
61703;BMP280;47622;47.726;3.298;2022-12-18T01:57:21;99716.78;;;-7.75
61703;BMP280;47622;47.726;3.298;2022-12-18T01:59:52;99724.63;;;-7.61
61703;BMP280;47622;47.726;3.298;2022-12-18T02:02:18;99726.69;;;-7.64
61703;BMP280;47622;47.726;3.298;2022-12-18T02:04:45;99727.00;;;-7.67
61703;BMP280;47622;47.726;3.298;2022-12-18T02:07:29;99726.38;;;-7.61
61703;BMP280;47622;47.726;3.298;2022-12-18T02:10:18;99734.34;;;-7.56
61703;BMP280;47622;47.726;3.298;2022-12-18T02:12:52;99732.75;;;-7.57
61703;BMP280;47622;47.726;3.298;2022-12-18T02:15:27;99737.81;;;-7.57
61703;BMP280;47622;47.726;3.298;2022-12-18T02:18:11;99736.56;;;-7.61
61703;BMP280;47622;47.726;3.298;2022-12-18T02:20:43;99734.16;;;-7.63
61703;BMP280;47622;47.726;3.298;2022-12-18T02:26:38;99735.91;;;-7.63
61703;BMP280;47622;47.726;3.298;2022-12-18T02:31:59;99728.31;;;-7.55
61703;BMP280;47622;47.726;3.298;2022-12-18T02:34:33;99733.09;;;-7.44
61703;BMP280;47622;47.726;3.298;2022-12-18T02:37:04;99739.13;;;-7.37
61703;BMP280;47622;47.726;3.298;2022-12-18T02:39:32;99722.59;;;-7.41
61703;BMP280;47622;47.726;3.298;2022-12-18T02:41:58;99722.91;;;-7.44
61703;BMP280;47622;47.726;3.298;2022-12-18T02:44:24;99724.19;;;-7.48
61703;BMP280;47622;47.726;3.298;2022-12-18T02:46:52;99723.97;;;-7.63
61703;BMP280;47622;47.726;3.298;2022-12-18T02:49:38;99724.50;;;-7.51
61703;BMP280;47622;47.726;3.298;2022-12-18T02:57:21;99712.72;;;-7.27
61703;BMP280;47622;47.726;3.298;2022-12-18T02:59:58;99709.22;;;-7.26
61703;BMP280;47622;47.726;3.298;2022-12-18T03:02:32;99707.63;;;-7.27
61703;BMP280;47622;47.726;3.298;2022-12-18T03:05:22;99712.28;;;-7.23
61703;BMP280;47622;47.726;3.298;2022-12-18T03:08:04;99714.47;;;-7.20
61703;BMP280;47622;47.726;3.298;2022-12-18T03:10:35;99710.53;;;-7.22
61703;BMP280;47622;47.726;3.298;2022-12-18T03:13:06;99711.16;;;-7.12
61703;BMP280;47622;47.726;3.298;2022-12-18T03:15:39;99707.34;;;-7.08
61703;BMP280;47622;47.726;3.298;2022-12-18T03:18:12;99704.63;;;-7.06
61703;BMP280;47622;47.726;3.298;2022-12-18T03:20:40;99708.25;;;-7.01
61703;BMP280;47622;47.726;3.298;2022-12-18T03:23:12;99700.78;;;-7.02
61703;BMP280;47622;47.726;3.298;2022-12-18T03:25:41;99701.28;;;-7.07
61703;BMP280;47622;47.726;3.298;2022-12-18T03:28:12;99699.84;;;-7.10
61703;BMP280;47622;47.726;3.298;2022-12-18T03:30:40;99711.28;;;-7.05
61703;BMP280;47622;47.726;3.298;2022-12-18T03:33:27;99703.47;;;-7.04
61703;BMP280;47622;47.726;3.298;2022-12-18T03:35:53;99706.50;;;-7.00
61703;BMP280;47622;47.726;3.298;2022-12-18T03:38:19;99709.22;;;-7.02
61703;BMP280;47622;47.726;3.298;2022-12-18T03:40:56;99694.91;;;-7.11
61703;BMP280;47622;47.726;3.298;2022-12-18T03:43:28;99706.88;;;-7.12
61703;BMP280;47622;47.726;3.298;2022-12-18T03:46:29;99699.38;;;-7.13
61703;BMP280;47622;47.726;3.298;2022-12-18T03:51:54;99704.78;;;-7.08
61703;BMP280;47622;47.726;3.298;2022-12-18T03:54:22;99701.47;;;-7.09
61703;BMP280;47622;47.726;3.298;2022-12-18T03:56:54;99707.34;;;-7.08
61703;BMP280;47622;47.726;3.298;2022-12-18T03:59:21;99706.56;;;-7.09
61703;BMP280;47622;47.726;3.298;2022-12-18T04:01:49;99698.72;;;-7.07
61703;BMP280;47622;47.726;3.298;2022-12-18T04:04:18;99691.72;;;-7.05
61703;BMP280;47622;47.726;3.298;2022-12-18T04:06:46;99705.41;;;-7.06
61703;BMP280;47622;47.726;3.298;2022-12-18T04:09:13;99708.13;;;-7.07
61703;BMP280;47622;47.726;3.298;2022-12-18T04:11:40;99701.59;;;-7.10
61703;BMP280;47622;47.726;3.298;2022-12-18T04:14:07;99705.09;;;-7.11
61703;BMP280;47622;47.726;3.298;2022-12-18T04:16:32;99701.91;;;-7.05
61703;BMP280;47622;47.726;3.298;2022-12-18T04:18:58;99700.16;;;-7.13
61703;BMP280;47622;47.726;3.298;2022-12-18T04:21:24;99701.78;;;-7.12
61703;BMP280;47622;47.726;3.298;2022-12-18T04:23:49;99700.66;;;-7.17
61703;BMP280;47622;47.726;3.298;2022-12-18T04:26:15;99703.84;;;-7.23
61703;BMP280;47622;47.726;3.298;2022-12-18T04:28:40;99709.56;;;-7.29
61703;BMP280;47622;47.726;3.298;2022-12-18T04:31:06;99699.38;;;-7.21
61703;BMP280;47622;47.726;3.298;2022-12-18T04:33:32;99705.72;;;-7.25
61703;BMP280;47622;47.726;3.298;2022-12-18T04:35:57;99707.31;;;-7.24
61703;BMP280;47622;47.726;3.298;2022-12-18T04:38:23;99713.88;;;-7.30
61703;BMP280;47622;47.726;3.298;2022-12-18T04:40:48;99708.44;;;-7.27
61703;BMP280;47622;47.726;3.298;2022-12-18T04:43:14;99720.41;;;-7.19
61703;BMP280;47622;47.726;3.298;2022-12-18T04:45:39;99728.03;;;-7.19
61703;BMP280;47622;47.726;3.298;2022-12-18T04:48:05;99719.75;;;-7.29
61703;BMP280;47622;47.726;3.298;2022-12-18T04:50:31;99725.28;;;-7.26
61703;BMP280;47622;47.726;3.298;2022-12-18T04:52:57;99729.28;;;-7.15
61703;BMP280;47622;47.726;3.298;2022-12-18T04:55:22;99728.97;;;-7.04
61703;BMP280;47622;47.726;3.298;2022-12-18T04:57:48;99725.94;;;-6.99
61703;BMP280;47622;47.726;3.298;2022-12-18T05:00:14;99719.25;;;-7.00
61703;BMP280;47622;47.726;3.298;2022-12-18T05:02:39;99720.38;;;-7.03
61703;BMP280;47622;47.726;3.298;2022-12-18T05:05:06;99719.75;;;-6.97
61703;BMP280;47622;47.726;3.298;2022-12-18T05:07:32;99723.56;;;-7.01
61703;BMP280;47622;47.726;3.298;2022-12-18T05:09:57;99721.31;;;-7.04
61703;BMP280;47622;47.726;3.298;2022-12-18T05:12:23;99712.44;;;-7.08
61703;BMP280;47622;47.726;3.298;2022-12-18T05:14:48;99724.81;;;-7.05
61703;BMP280;47622;47.726;3.298;2022-12-18T05:17:14;99723.06;;;-7.04
61703;BMP280;47622;47.726;3.298;2022-12-18T05:19:40;99725.13;;;-7.00
61703;BMP280;47622;47.726;3.298;2022-12-18T05:22:09;99734.06;;;-7.04
61703;BMP280;47622;47.726;3.298;2022-12-18T05:24:34;99737.56;;;-7.05
61703;BMP280;47622;47.726;3.298;2022-12-18T05:27:00;99740.09;;;-7.13
61703;BMP280;47622;47.726;3.298;2022-12-18T05:29:25;99741.38;;;-7.09
61703;BMP280;47622;47.726;3.298;2022-12-18T05:31:51;99739.81;;;-7.10
61703;BMP280;47622;47.726;3.298;2022-12-18T05:34:16;99735.03;;;-7.13
61703;BMP280;47622;47.726;3.298;2022-12-18T05:36:42;99735.97;;;-7.06
61703;BMP280;47622;47.726;3.298;2022-12-18T05:39:07;99757.94;;;-7.05
61703;BMP280;47622;47.726;3.298;2022-12-18T05:41:33;99749.03;;;-6.93
61703;BMP280;47622;47.726;3.298;2022-12-18T05:43:59;99752.53;;;-6.69
61703;BMP280;47622;47.726;3.298;2022-12-18T05:46:25;99756.94;;;-6.63
61703;BMP280;47622;47.726;3.298;2022-12-18T05:48:51;99754.22;;;-6.62
61703;BMP280;47622;47.726;3.298;2022-12-18T05:51:19;99757.44;;;-6.60
61703;BMP280;47622;47.726;3.298;2022-12-18T05:53:46;99754.72;;;-6.58
61703;BMP280;47622;47.726;3.298;2022-12-18T05:56:14;99753.75;;;-6.57
61703;BMP280;47622;47.726;3.298;2022-12-18T05:58:40;99761.09;;;-6.54
61703;BMP280;47622;47.726;3.298;2022-12-18T06:01:16;99760.63;;;-6.57
61703;BMP280;47622;47.726;3.298;2022-12-18T06:03:42;99767.66;;;-6.60
61703;BMP280;47622;47.726;3.298;2022-12-18T06:06:19;99769.22;;;-6.58
61703;BMP280;47622;47.726;3.298;2022-12-18T06:08:46;99777.34;;;-6.63
61703;BMP280;47622;47.726;3.298;2022-12-18T06:11:12;99763.97;;;-6.65
61703;BMP280;47622;47.726;3.298;2022-12-18T06:13:38;99760.16;;;-6.69
61703;BMP280;47622;47.726;3.298;2022-12-18T06:16:05;99756.66;;;-6.76
61703;BMP280;47622;47.726;3.298;2022-12-18T06:18:31;99759.84;;;-6.74
61703;BMP280;47622;47.726;3.298;2022-12-18T06:20:58;99765.56;;;-6.72
61703;BMP280;47622;47.726;3.298;2022-12-18T06:23:24;99770.53;;;-6.71
61703;BMP280;47622;47.726;3.298;2022-12-18T06:25:50;99765.88;;;-6.75
61703;BMP280;47622;47.726;3.298;2022-12-18T06:28:16;99752.22;;;-6.99
61703;BMP280;47622;47.726;3.298;2022-12-18T06:30:46;99760.66;;;-7.06
61703;BMP280;47622;47.726;3.298;2022-12-18T06:33:12;99756.34;;;-7.06
61703;BMP280;47622;47.726;3.298;2022-12-18T06:35:37;99749.19;;;-7.11
61703;BMP280;47622;47.726;3.298;2022-12-18T06:38:03;99750.94;;;-7.11
61703;BMP280;47622;47.726;3.298;2022-12-18T06:40:29;99745.19;;;-7.05
61703;BMP280;47622;47.726;3.298;2022-12-18T06:42:55;99736.78;;;-7.05
61703;BMP280;47622;47.726;3.298;2022-12-18T06:45:20;99741.38;;;-7.09
61703;BMP280;47622;47.726;3.298;2022-12-18T06:47:46;99732.16;;;-7.18
61703;BMP280;47622;47.726;3.298;2022-12-18T06:50:12;99720.06;;;-7.16
61703;BMP280;47622;47.726;3.298;2022-12-18T06:52:38;99718.31;;;-7.07
61703;BMP280;47622;47.726;3.298;2022-12-18T06:55:05;99711.66;;;-7.09
61703;BMP280;47622;47.726;3.298;2022-12-18T06:57:30;99709.84;;;-7.00
61703;BMP280;47622;47.726;3.298;2022-12-18T06:59:56;99716.22;;;-7.04
61703;BMP280;47622;47.726;3.298;2022-12-18T07:02:21;99722.28;;;-7.05
61703;BMP280;47622;47.726;3.298;2022-12-18T07:04:47;99731.19;;;-7.01
61703;BMP280;47622;47.726;3.298;2022-12-18T07:07:13;99720.53;;;-7.04
61703;BMP280;47622;47.726;3.298;2022-12-18T07:09:38;99722.28;;;-7.05
61703;BMP280;47622;47.726;3.298;2022-12-18T07:12:04;99725.47;;;-7.03
61703;BMP280;47622;47.726;3.298;2022-12-18T07:14:30;99723.56;;;-7.01
61703;BMP280;47622;47.726;3.298;2022-12-18T07:16:55;99718.44;;;-7.01
61703;BMP280;47622;47.726;3.298;2022-12-18T07:19:21;99716.56;;;-6.99
61703;BMP280;47622;47.726;3.298;2022-12-18T07:21:46;99726.44;;;-6.96
61703;BMP280;47622;47.726;3.298;2022-12-18T07:24:12;99731.66;;;-7.05
61703;BMP280;47622;47.726;3.298;2022-12-18T07:26:38;99727.84;;;-7.01
61703;BMP280;47622;47.726;3.298;2022-12-18T07:29:03;99732.16;;;-6.86
61703;BMP280;47622;47.726;3.298;2022-12-18T07:31:29;99732.91;;;-6.69
61703;BMP280;47622;47.726;3.298;2022-12-18T07:33:54;99725.75;;;-6.73
61703;BMP280;47622;47.726;3.298;2022-12-18T07:36:20;99721.63;;;-6.66
61703;BMP280;47622;47.726;3.298;2022-12-18T07:38:49;99738.31;;;-6.55
61703;BMP280;47622;47.726;3.298;2022-12-18T07:41:16;99732.09;;;-6.53
61703;BMP280;47622;47.726;3.298;2022-12-18T07:43:41;99719.78;;;-6.41
61703;BMP280;47622;47.726;3.298;2022-12-18T07:46:08;99726.28;;;-6.30
61703;BMP280;47622;47.726;3.298;2022-12-18T07:48:34;99727.81;;;-6.13
61703;BMP280;47622;47.726;3.298;2022-12-18T07:51:01;99729.66;;;-5.99
61703;BMP280;47622;47.726;3.298;2022-12-18T07:53:27;99735.81;;;-5.85
61703;BMP280;47622;47.726;3.298;2022-12-18T07:56:00;99743.91;;;-5.73
61703;BMP280;47622;47.726;3.298;2022-12-18T07:58:27;99747.41;;;-5.51
61703;BMP280;47622;47.726;3.298;2022-12-18T08:00:53;99763.09;;;-5.08
61703;BMP280;47622;47.726;3.298;2022-12-18T08:03:19;99767.50;;;-4.50
61703;BMP280;47622;47.726;3.298;2022-12-18T08:05:45;99761.44;;;-3.98
61703;BMP280;47622;47.726;3.298;2022-12-18T08:08:10;99763.81;;;-3.17
61703;BMP280;47622;47.726;3.298;2022-12-18T08:10:37;99774.22;;;-2.28
61703;BMP280;47622;47.726;3.298;2022-12-18T08:13:03;99779.53;;;-1.62
61703;BMP280;47622;47.726;3.298;2022-12-18T08:15:28;99778.38;;;-1.33
61703;BMP280;47622;47.726;3.298;2022-12-18T08:17:56;99777.34;;;-1.45
61703;BMP280;47622;47.726;3.298;2022-12-18T08:20:22;99778.34;;;-1.59
61703;BMP280;47622;47.726;3.298;2022-12-18T08:22:47;99778.69;;;-1.82
61703;BMP280;47622;47.726;3.298;2022-12-18T08:25:14;99764.59;;;-2.06
61703;BMP280;47622;47.726;3.298;2022-12-18T08:27:39;99772.03;;;-2.24
61703;BMP280;47622;47.726;3.298;2022-12-18T08:30:05;99784.81;;;-2.38
61703;BMP280;47622;47.726;3.298;2022-12-18T08:32:31;99774.84;;;-2.61
61703;BMP280;47622;47.726;3.298;2022-12-18T08:34:58;99769.13;;;-2.91
61703;BMP280;47622;47.726;3.298;2022-12-18T08:37:24;99758.97;;;-3.27
61703;BMP280;47622;47.726;3.298;2022-12-18T08:39:49;99767.59;;;-3.34
61703;BMP280;47622;47.726;3.298;2022-12-18T08:42:15;99761.50;;;-3.55
61703;BMP280;47622;47.726;3.298;2022-12-18T08:44:59;99765.91;;;-3.49
61703;BMP280;47622;47.726;3.298;2022-12-18T08:47:25;99751.13;;;-3.47
61703;BMP280;47622;47.726;3.298;2022-12-18T08:49:51;99751.00;;;-3.60
61703;BMP280;47622;47.726;3.298;2022-12-18T08:52:16;99752.28;;;-3.71
61703;BMP280;47622;47.726;3.298;2022-12-18T08:54:42;99749.72;;;-3.71
61703;BMP280;47622;47.726;3.298;2022-12-18T08:57:08;99751.50;;;-3.71
61703;BMP280;47622;47.726;3.298;2022-12-18T08:59:33;99742.72;;;-3.62
61703;BMP280;47622;47.726;3.298;2022-12-18T09:01:59;99747.47;;;-3.59
61703;BMP280;47622;47.726;3.298;2022-12-18T09:04:24;99750.84;;;-3.52
61703;BMP280;47622;47.726;3.298;2022-12-18T09:06:50;99742.81;;;-3.27
61703;BMP280;47622;47.726;3.298;2022-12-18T09:09:15;99752.28;;;-3.00
61703;BMP280;47622;47.726;3.298;2022-12-18T09:11:41;99748.31;;;-2.68
61703;BMP280;47622;47.726;3.298;2022-12-18T09:14:07;99751.66;;;-2.33
61703;BMP280;47622;47.726;3.298;2022-12-18T09:16:34;99752.56;;;-2.05
61703;BMP280;47622;47.726;3.298;2022-12-18T09:19:01;99758.19;;;-1.75
61703;BMP280;47622;47.726;3.298;2022-12-18T09:21:29;99761.75;;;-1.23
61703;BMP280;47622;47.726;3.298;2022-12-18T09:23:56;99769.00;;;-0.81
61703;BMP280;47622;47.726;3.298;2022-12-18T09:26:23;99776.88;;;-0.62
61703;BMP280;47622;47.726;3.298;2022-12-18T09:28:49;99787.31;;;-0.44
61703;BMP280;47622;47.726;3.298;2022-12-18T09:31:16;99783.63;;;-0.16
61703;BMP280;47622;47.726;3.298;2022-12-18T09:33:42;99793.63;;;0.37
61703;BMP280;47622;47.726;3.298;2022-12-18T09:36:10;99789.09;;;0.57
61703;BMP280;47622;47.726;3.298;2022-12-18T09:38:36;99790.78;;;0.95
61703;BMP280;47622;47.726;3.298;2022-12-18T09:44:02;99787.44;;;1.79
61703;BMP280;47622;47.726;3.298;2022-12-18T09:46:33;99789.38;;;2.26
61703;BMP280;47622;47.726;3.298;2022-12-18T09:49:03;99796.78;;;2.34
61703;BMP280;47622;47.726;3.298;2022-12-18T09:51:39;99786.81;;;2.26
61703;BMP280;47622;47.726;3.298;2022-12-18T09:54:31;99795.22;;;2.21
61703;BMP280;47622;47.726;3.298;2022-12-18T09:56:58;99779.44;;;2.11
61703;BMP280;47622;47.726;3.298;2022-12-18T09:59:30;99782.94;;;2.17
61703;BMP280;47622;47.726;3.298;2022-12-18T10:01:57;99779.97;;;2.01
61703;BMP280;47622;47.726;3.298;2022-12-18T10:04:23;99781.25;;;1.80
61703;BMP280;47622;47.726;3.298;2022-12-18T10:06:58;99772.72;;;1.50
61703;BMP280;47622;47.726;3.298;2022-12-18T10:12:08;99771.28;;;1.36
61703;BMP280;47622;47.726;3.298;2022-12-18T10:17:51;99774.16;;;1.27
61703;BMP280;47622;47.726;3.298;2022-12-18T10:20:33;99767.00;;;1.11
61703;BMP280;47622;47.726;3.298;2022-12-18T10:23:15;99758.75;;;1.02
61703;BMP280;47622;47.726;3.298;2022-12-18T10:25:55;99764.00;;;1.14
61703;BMP280;47622;47.726;3.298;2022-12-18T10:28:25;99767.25;;;0.85
61703;BMP280;47622;47.726;3.298;2022-12-18T10:30:51;99778.75;;;1.07
61703;BMP280;47622;47.726;3.298;2022-12-18T10:33:20;99768.75;;;1.17
61703;BMP280;47622;47.726;3.298;2022-12-18T10:35:47;99766.31;;;1.52
61703;BMP280;47622;47.726;3.298;2022-12-18T10:41:43;99773.84;;;2.14
61703;BMP280;47622;47.726;3.298;2022-12-18T10:44:18;99777.56;;;2.65
61703;BMP280;47622;47.726;3.298;2022-12-18T10:46:46;99772.94;;;3.02
61703;BMP280;47622;47.726;3.298;2022-12-18T10:49:26;99779.16;;;3.41
61703;BMP280;47622;47.726;3.298;2022-12-18T10:52:11;99780.44;;;3.56
61703;BMP280;47622;47.726;3.298;2022-12-18T10:54:39;99779.78;;;3.77
61703;BMP280;47622;47.726;3.298;2022-12-18T11:02:45;99770.94;;;4.23
61703;BMP280;47622;47.726;3.298;2022-12-18T11:05:24;99767.03;;;4.59
61703;BMP280;47622;47.726;3.298;2022-12-18T11:07:51;99749.34;;;4.56
61703;BMP280;47622;47.726;3.298;2022-12-18T11:10:21;99757.56;;;4.48
61703;BMP280;47622;47.726;3.298;2022-12-18T11:12:47;99755.69;;;4.27
61703;BMP280;47622;47.726;3.298;2022-12-18T11:15:21;99752.88;;;4.89
61703;BMP280;47622;47.726;3.298;2022-12-18T11:17:50;99756.25;;;5.11
61703;BMP280;47622;47.726;3.298;2022-12-18T11:20:35;99747.91;;;5.09
61703;BMP280;47622;47.726;3.298;2022-12-18T11:23:04;99748.81;;;4.54
61703;BMP280;47622;47.726;3.298;2022-12-18T11:25:32;99744.97;;;5.01
61703;BMP280;47622;47.726;3.298;2022-12-18T11:28:00;99741.56;;;5.22
61703;BMP280;47622;47.726;3.298;2022-12-18T11:30:34;99730.84;;;5.19
61703;BMP280;47622;47.726;3.298;2022-12-18T11:35:37;99722.63;;;5.27
61703;BMP280;47622;47.726;3.298;2022-12-18T11:40:41;99722.44;;;5.33
61703;BMP280;47622;47.726;3.298;2022-12-18T11:43:15;99714.56;;;5.01
61703;BMP280;47622;47.726;3.298;2022-12-18T11:48:21;99716.34;;;4.79
61703;BMP280;47622;47.726;3.298;2022-12-18T11:50:55;99717.59;;;4.93
61703;BMP280;47622;47.726;3.298;2022-12-18T11:53:22;99713.59;;;5.07
61703;BMP280;47622;47.726;3.298;2022-12-18T12:01:16;99727.78;;;5.00
61703;BMP280;47622;47.726;3.298;2022-12-18T12:04:06;99713.97;;;4.94
61703;BMP280;47622;47.726;3.298;2022-12-18T12:16:53;99705.38;;;4.94
61703;BMP280;47622;47.726;3.298;2022-12-18T12:19:33;99710.06;;;4.92
61703;BMP280;47622;47.726;3.298;2022-12-18T12:22:24;99701.78;;;5.00
61703;BMP280;47622;47.726;3.298;2022-12-18T12:27:48;99700.47;;;4.97
61703;BMP280;47622;47.726;3.298;2022-12-18T12:33:40;99689.66;;;4.62
61703;BMP280;47622;47.726;3.298;2022-12-18T12:38:49;99681.56;;;4.36
61703;BMP280;47622;47.726;3.298;2022-12-18T12:41:20;99662.25;;;4.27
61703;BMP280;47622;47.726;3.298;2022-12-18T12:44:09;99659.56;;;4.39
61703;BMP280;47622;47.726;3.298;2022-12-18T12:46:41;99655.13;;;4.39
61703;BMP280;47622;47.726;3.298;2022-12-18T12:49:29;99661.72;;;4.47
61703;BMP280;47622;47.726;3.298;2022-12-18T12:52:12;99665.97;;;4.53
61703;BMP280;47622;47.726;3.298;2022-12-18T12:54:39;99664.75;;;4.39
61703;BMP280;47622;47.726;3.298;2022-12-18T13:00:17;99681.56;;;4.36
61703;BMP280;47622;47.726;3.298;2022-12-18T13:05:35;99674.16;;;4.45
61703;BMP280;47622;47.726;3.298;2022-12-18T13:08:06;99669.22;;;4.43
61703;BMP280;47622;47.726;3.298;2022-12-18T13:10:34;99648.88;;;4.35
61703;BMP280;47622;47.726;3.298;2022-12-18T13:13:13;99642.28;;;4.27
61703;BMP280;47622;47.726;3.298;2022-12-18T13:15:49;99639.94;;;4.26
61703;BMP280;47622;47.726;3.298;2022-12-18T13:18:28;99648.34;;;4.33
61703;BMP280;47622;47.726;3.298;2022-12-18T13:25:52;99645.13;;;4.26
61703;BMP280;47622;47.726;3.298;2022-12-18T13:36:41;99642.78;;;4.08
61703;BMP280;47622;47.726;3.298;2022-12-18T13:41:49;99641.56;;;4.10
61703;BMP280;47622;47.726;3.298;2022-12-18T13:44:40;99643.91;;;4.12
61703;BMP280;47622;47.726;3.298;2022-12-18T13:47:26;99639.41;;;4.07
61703;BMP280;47622;47.726;3.298;2022-12-18T13:49:53;99644.19;;;3.98
61703;BMP280;47622;47.726;3.298;2022-12-18T13:52:25;99644.94;;;3.94
61703;BMP280;47622;47.726;3.298;2022-12-18T13:54:56;99633.78;;;3.93
61703;BMP280;47622;47.726;3.298;2022-12-18T13:57:28;99639.25;;;3.97
61703;BMP280;47622;47.726;3.298;2022-12-18T13:59:55;99639.78;;;3.99
61703;BMP280;47622;47.726;3.298;2022-12-18T14:02:27;99636.66;;;3.97
61703;BMP280;47622;47.726;3.298;2022-12-18T14:04:54;99631.81;;;4.00
61703;BMP280;47622;47.726;3.298;2022-12-18T14:07:25;99629.16;;;3.95
61703;BMP280;47622;47.726;3.298;2022-12-18T14:10:00;99635.47;;;4.04
61703;BMP280;47622;47.726;3.298;2022-12-18T14:12:32;99636.03;;;4.07
61703;BMP280;47622;47.726;3.298;2022-12-18T14:18:20;99637.44;;;3.97
61703;BMP280;47622;47.726;3.298;2022-12-18T14:20:48;99639.00;;;3.98
61703;BMP280;47622;47.726;3.298;2022-12-18T14:23:30;99636.22;;;4.00
61703;BMP280;47622;47.726;3.298;2022-12-18T14:25:56;99632.09;;;4.04
61703;BMP280;47622;47.726;3.298;2022-12-18T14:28:22;99635.72;;;4.03
61703;BMP280;47622;47.726;3.298;2022-12-18T14:30:48;99627.63;;;3.99
61703;BMP280;47622;47.726;3.298;2022-12-18T14:33:24;99629.81;;;4.08
61703;BMP280;47622;47.726;3.298;2022-12-18T14:38:31;99629.28;;;4.06
61703;BMP280;47622;47.726;3.298;2022-12-18T14:40:58;99634.84;;;3.97
61703;BMP280;47622;47.726;3.298;2022-12-18T14:43:25;99632.44;;;3.91
61703;BMP280;47622;47.726;3.298;2022-12-18T14:45:51;99632.44;;;3.91
61703;BMP280;47622;47.726;3.298;2022-12-18T14:50:56;99636.84;;;3.90
61703;BMP280;47622;47.726;3.298;2022-12-18T14:56:10;99631.19;;;3.93
61703;BMP280;47622;47.726;3.298;2022-12-18T14:58:37;99637.63;;;3.91
61703;BMP280;47622;47.726;3.298;2022-12-18T15:01:03;99640.94;;;3.86
61703;BMP280;47622;47.726;3.298;2022-12-18T15:03:28;99633.69;;;3.88
61703;BMP280;47622;47.726;3.298;2022-12-18T15:05:54;99624.91;;;3.89
61703;BMP280;47622;47.726;3.298;2022-12-18T15:08:34;99635.28;;;3.89
61703;BMP280;47622;47.726;3.298;2022-12-18T15:11:00;99625.47;;;3.91
61703;BMP280;47622;47.726;3.298;2022-12-18T15:13:26;99628.19;;;4.01
61703;BMP280;47622;47.726;3.298;2022-12-18T15:15:53;99623.06;;;4.07
61703;BMP280;47622;47.726;3.298;2022-12-18T15:18:27;99630.94;;;4.12
61703;BMP280;47622;47.726;3.298;2022-12-18T15:20:57;99617.97;;;4.12
61703;BMP280;47622;47.726;3.298;2022-12-18T15:26:04;99620.94;;;4.03
61703;BMP280;47622;47.726;3.298;2022-12-18T15:28:48;99623.53;;;4.03
61703;BMP280;47622;47.726;3.298;2022-12-18T15:36:17;99613.44;;;3.85
61703;BMP280;47622;47.726;3.298;2022-12-18T15:38:47;99619.09;;;3.82
61703;BMP280;47622;47.726;3.298;2022-12-18T15:41:17;99620.09;;;3.81
61703;BMP280;47622;47.726;3.298;2022-12-18T15:43:44;99627.75;;;3.71
61703;BMP280;47622;47.726;3.298;2022-12-18T15:46:13;99622.56;;;3.71
61703;BMP280;47622;47.726;3.298;2022-12-18T15:48:47;99614.72;;;3.66
61703;BMP280;47622;47.726;3.298;2022-12-18T15:51:31;99613.13;;;3.65
61703;BMP280;47622;47.726;3.298;2022-12-18T15:54:00;99609.91;;;3.58
61703;BMP280;47622;47.726;3.298;2022-12-18T15:56:26;99617.13;;;3.56
61703;BMP280;47622;47.726;3.298;2022-12-18T15:59:15;99618.16;;;3.55
61703;BMP280;47622;47.726;3.298;2022-12-18T16:01:43;99621.63;;;3.43
61703;BMP280;47622;47.726;3.298;2022-12-18T16:04:11;99615.81;;;3.36
61703;BMP280;47622;47.726;3.298;2022-12-18T16:06:38;99616.09;;;3.40
61703;BMP280;47622;47.726;3.298;2022-12-18T16:09:04;99614.22;;;3.52
61703;BMP280;47622;47.726;3.298;2022-12-18T16:11:32;99615.03;;;3.53
61703;BMP280;47622;47.726;3.298;2022-12-18T16:14:25;99612.03;;;3.44
61703;BMP280;47622;47.726;3.298;2022-12-18T16:16:56;99616.91;;;3.40